Time;durP1;ratioP1;P1;durP2;ratioP2;P2;SDS_P1;SDS_P2;PMS_P1;PMS_P2;Temp;Humidity;BMP_temperature;BMP_pressure;BME280_temperature;BME280_humidity;BME280_pressure;Samples;Min_cycle;Max_cycle;Signal;HPM_P1;HPM_P2
2022/05/19 00:01:06;;;;;;;42.22;37.63;;;20.60;91.80;;;;;;5031418;28;99254;-71
2022/05/19 00:03:36;;;;;;;44.42;37.33;;;20.50;91.80;;;;;;5012501;28;101816;-72
2022/05/19 00:06:04;;;;;;;44.28;39.47;;;20.50;92.10;;;;;;5030670;28;97792;-71
2022/05/19 00:08:31;;;;;;;48.30;38.15;;;20.50;92.20;;;;;;5030908;28;98432;-72
2022/05/19 00:11:02;;;;;;;51.22;41.25;;;20.40;92.40;;;;;;5014941;28;101813;-71
2022/05/19 00:13:30;;;;;;;49.63;39.67;;;20.40;92.50;;;;;;5015492;28;101771;-71
2022/05/19 00:15:58;;;;;;;49.90;42.72;;;20.40;92.60;;;;;;5033228;28;98463;-72
2022/05/19 00:18:25;;;;;;;48.83;41.25;;;20.40;92.70;;;;;;5034184;28;98943;-72
2022/05/19 00:20:52;;;;;;;46.60;40.35;;;20.30;92.80;;;;;;5015827;28;105077;-71
2022/05/19 00:23:19;;;;;;;46.75;39.90;;;20.30;92.90;;;;;;5015549;28;101787;-71
2022/05/19 00:25:47;;;;;;;50.63;39.75;;;20.20;93.00;;;;;;5033945;28;98585;-72
2022/05/19 00:28:14;;;;;;;47.92;41.13;;;20.20;93.10;;;;;;5016664;28;98631;-72
2022/05/19 00:30:42;;;;;;;48.85;42.50;;;20.20;93.10;;;;;;5034075;28;98676;-72
2022/05/19 00:33:09;;;;;;;49.22;42.08;;;20.20;93.20;;;;;;5034012;28;98798;-71
2022/05/19 00:35:38;;;;;;;53.03;41.30;;;20.20;93.10;;;;;;5033691;28;98503;-71
2022/05/19 00:38:06;;;;;;;45.40;40.45;;;20.20;93.30;;;;;;5016010;28;99336;-71
2022/05/19 00:40:33;;;;;;;47.40;41.58;;;20.20;93.30;;;;;;5033620;28;99351;-72
2022/05/19 00:43:00;;;;;;;51.42;42.10;;;20.10;93.40;;;;;;5033567;28;99011;-71
2022/05/19 00:45:37;;;;;;;48.90;43.63;;;20.10;93.60;;;;;;4999356;28;98482;-72
2022/05/19 00:48:14;;;;;;;52.20;45.75;;;20.10;93.70;;;;;;4999082;28;98641;-72
2022/05/19 00:50:50;;;;;;;52.67;45.85;;;20.00;93.70;;;;;;5015246;28;101780;-71
2022/05/19 00:53:20;;;;;;;52.15;44.85;;;20.00;93.80;;;;;;5015090;28;102107;-71
2022/05/19 00:55:50;;;;;;;54.05;48.30;;;19.90;93.80;;;;;;5034048;28;97740;-71
2022/05/19 00:58:26;;;;;;;58.55;48.70;;;19.90;94.00;;;;;;5032422;28;98977;-71
2022/05/19 01:00:55;;;;;;;59.80;50.03;;;19.90;94.00;;;;;;5032249;28;99361;-72
2022/05/19 01:03:24;;;;;;;60.13;50.50;;;19.80;94.10;;;;;;5033073;28;99151;-72
2022/05/19 01:05:59;;;;;;;58.67;51.90;;;19.70;94.10;;;;;;5033740;28;98563;-71
2022/05/19 01:08:43;;;;;;;56.13;49.55;;;19.70;94.20;;;;;;5033731;28;98508;-72
2022/05/19 01:11:10;;;;;;;58.00;48.87;;;19.60;94.20;;;;;;5032215;28;99344;-72
2022/05/19 01:13:37;;;;;;;62.08;49.25;;;19.50;94.40;;;;;;5015144;28;101865;-72
2022/05/19 01:16:07;;;;;;;55.75;49.70;;;19.50;94.60;;;;;;4998612;28;98578;-71
2022/05/19 01:18:36;;;;;;;58.75;49.13;;;19.40;94.70;;;;;;5015221;28;98589;-72
2022/05/19 01:21:06;;;;;;;55.03;49.08;;;19.40;94.90;;;;;;5015437;27;98736;-71
2022/05/19 01:23:36;;;;;;;60.20;49.83;;;19.30;95.00;;;;;;5032217;28;98436;-71
2022/05/19 01:26:18;;;;;;;60.38;50.85;;;19.30;95.20;;;;;;5014766;28;99363;-72
2022/05/19 01:28:46;;;;;;;53.88;47.83;;;19.40;95.20;;;;;;5014528;28;99280;-72
2022/05/19 01:31:37;;;;;;;60.17;53.55;;;19.30;95.20;;;;;;5032881;28;99308;-71
2022/05/19 01:34:06;;;;;;;62.55;51.45;;;19.40;95.20;;;;;;5031745;28;101644;-71
2022/05/19 01:36:33;;;;;;;66.93;51.22;;;19.30;95.20;;;;;;5032954;28;98485;-71
2022/05/19 01:39:06;;;;;;;57.33;51.08;;;19.30;95.20;;;;;;4998582;28;98631;-72
2022/05/19 01:41:55;;;;;;;60.33;52.40;;;19.30;95.20;;;;;;5032834;28;99302;-71
2022/05/19 01:44:36;;;;;;;59.33;52.85;;;19.30;95.10;;;;;;4997898;28;101573;-72
2022/05/19 01:47:18;;;;;;;63.45;52.13;;;19.30;95.20;;;;;;5015341;28;97877;-71
2022/05/19 01:50:16;;;;;;;61.67;49.88;;;19.20;95.20;;;;;;5014713;28;98514;-71
2022/05/19 01:52:54;;;;;;;61.38;49.65;;;19.20;95.20;;;;;;5032555;28;99362;-71
2022/05/19 01:55:32;;;;;;;59.53;51.70;;;19.20;95.20;;;;;;5014564;28;100034;-71
2022/05/19 01:58:12;;;;;;;58.03;49.53;;;19.10;95.20;;;;;;5033105;28;98443;-72
2022/05/19 02:00:40;;;;;;;57.20;50.25;;;19.10;95.30;;;;;;5031754;28;98521;-71
2022/05/19 02:03:21;;;;;;;63.20;49.13;;;19.10;95.30;;;;;;5032464;28;99228;-71
2022/05/19 02:06:02;;;;;;;60.92;50.47;;;19.10;95.30;;;;;;5032444;28;99024;-72
2022/05/19 02:08:41;;;;;;;58.28;49.33;;;19.10;95.20;;;;;;5033099;28;98499;-72
2022/05/19 02:11:13;;;;;;;67.28;49.83;;;19.00;95.20;;;;;;5031691;28;98532;-71
2022/05/19 02:13:40;;;;;;;59.35;48.10;;;19.00;95.30;;;;;;5032478;28;98742;-71
2022/05/19 02:16:12;;;;;;;60.25;49.80;;;18.90;95.30;;;;;;5032235;28;98510;-71
2022/05/19 02:18:39;;;;;;;57.78;49.78;;;18.90;95.20;;;;;;5031161;28;98593;-71
2022/05/19 02:21:07;;;;;;;63.00;48.83;;;18.90;95.30;;;;;;5013883;28;99335;-71
2022/05/19 02:23:35;;;;;;;62.55;50.15;;;18.90;95.30;;;;;;5014235;28;99380;-71
2022/05/19 02:26:02;;;;;;;63.97;50.58;;;18.90;95.30;;;;;;5012949;28;112865;-71
2022/05/19 02:28:41;;;;;;;59.78;47.90;;;18.90;95.30;;;;;;5031398;28;99095;-71
2022/05/19 02:31:08;;;;;;;59.58;48.55;;;18.90;95.40;;;;;;5032691;28;98486;-71
2022/05/19 02:33:36;;;;;;;60.13;49.92;;;18.80;95.50;;;;;;5032004;28;99334;-71
2022/05/19 02:36:04;;;;;;;57.53;48.65;;;18.80;95.50;;;;;;5013771;28;101863;-71
2022/05/19 02:38:31;;;;;;;60.75;49.35;;;18.80;95.50;;;;;;5032604;28;97809;-71
2022/05/19 02:40:58;;;;;;;55.50;47.67;;;18.70;95.60;;;;;;5032164;28;99390;-71
2022/05/19 02:43:25;;;;;;;63.92;50.03;;;18.70;95.70;;;;;;5032204;28;99187;-71
2022/05/19 02:45:52;;;;;;;58.13;49.05;;;18.70;95.80;;;;;;5013610;28;99251;-71
2022/05/19 02:48:19;;;;;;;60.65;51.08;;;18.70;96.00;;;;;;5014280;28;98558;-71
2022/05/19 02:50:48;;;;;;;58.80;50.67;;;18.60;96.10;;;;;;5032200;28;98515;-71
2022/05/19 02:53:17;;;;;;;62.08;50.42;;;18.60;96.20;;;;;;5031617;28;99232;-71
2022/05/19 02:55:44;;;;;;;64.53;50.50;;;18.60;96.20;;;;;;5013243;28;101750;-71
2022/05/19 02:58:14;;;;;;;61.50;52.78;;;18.60;96.30;;;;;;5032210;28;98488;-71
2022/05/19 03:00:43;;;;;;;64.20;52.50;;;18.60;96.30;;;;;;5030640;28;98584;-71
2022/05/19 03:03:10;;;;;;;66.07;53.05;;;18.60;96.30;;;;;;5030513;28;100927;-71
2022/05/19 03:05:39;;;;;;;62.58;51.83;;;18.50;96.40;;;;;;4996790;28;100894;-71
2022/05/19 03:08:07;;;;;;;66.55;54.17;;;18.50;96.30;;;;;;5030431;28;98556;-71
2022/05/19 03:10:37;;;;;;;59.15;49.90;;;18.60;96.30;;;;;;5031276;28;99184;-71
2022/05/19 03:13:04;;;;;;;62.97;52.35;;;18.50;96.30;;;;;;5030031;28;99842;-71
2022/05/19 03:15:33;;;;;;;64.30;53.60;;;18.50;96.40;;;;;;5013423;28;112444;-71
2022/05/19 03:18:00;;;;;;;67.95;54.92;;;18.50;96.40;;;;;;5031765;28;98864;-72
2022/05/19 03:20:27;;;;;;;67.22;55.00;;;18.50;96.40;;;;;;5030309;28;98573;-71
2022/05/19 03:22:54;;;;;;;66.47;54.60;;;18.50;96.50;;;;;;5029689;28;102081;-71
2022/05/19 03:25:21;;;;;;;67.05;54.22;;;18.50;96.60;;;;;;5031458;28;99119;-72
2022/05/19 03:27:48;;;;;;;70.55;57.00;;;18.50;96.90;;;;;;5030215;28;98153;-71
2022/05/19 03:30:16;;;;;;;65.80;55.53;;;18.50;97.00;;;;;;5030190;28;98659;-71
2022/05/19 03:32:44;;;;;;;73.63;58.53;;;18.50;97.40;;;;;;5031345;28;99337;-71
2022/05/19 03:35:12;;;;;;;69.57;58.97;;;18.50;97.50;;;;;;5012587;28;100098;-72
2022/05/19 03:37:39;;;;;;;74.47;58.72;;;18.40;97.70;;;;;;5031522;28;98547;-71
2022/05/19 03:40:07;;;;;;;72.60;58.13;;;18.40;98.10;;;;;;5031459;28;98536;-71
2022/05/19 03:42:34;;;;;;;71.40;59.33;;;18.40;98.30;;;;;;5031235;28;99398;-71
2022/05/19 03:45:03;;;;;;;71.00;60.40;;;18.30;98.30;;;;;;5030699;27;99183;-71
2022/05/19 03:47:30;;;;;;;73.13;61.38;;;18.30;98.40;;;;;;5016466;28;98941;-71
2022/05/19 03:49:58;;;;;;;70.32;58.63;;;18.40;98.50;;;;;;5016584;28;98570;-71
2022/05/19 03:52:25;;;;;;;74.35;61.47;;;18.30;98.60;;;;;;5017210;28;98509;-71
2022/05/19 03:54:52;;;;;;;74.50;59.72;;;18.30;98.60;;;;;;5034852;28;98810;-71
2022/05/19 03:57:21;;;;;;;76.72;62.25;;;18.30;98.70;;;;;;5016291;28;102059;-71
2022/05/19 03:59:49;;;;;;;76.55;59.38;;;18.30;98.70;;;;;;4999907;28;100073;-71
2022/05/19 04:02:16;;;;;;;73.43;60.10;;;18.30;98.70;;;;;;5034492;28;99377;-71
2022/05/19 04:04:59;;;;;;;75.63;61.42;;;18.30;98.80;;;;;;5015911;28;101748;-71
2022/05/19 04:07:26;;;;;;;74.88;63.42;;;18.40;98.80;;;;;;5033300;28;98599;-71
2022/05/19 04:09:53;;;;;;;72.38;60.53;;;18.40;99.00;;;;;;5034524;28;98418;-72
2022/05/19 04:12:21;;;;;;;73.68;60.60;;;18.40;98.80;;;;;;4999761;28;101839;-72
2022/05/19 04:14:49;;;;;;;70.25;59.03;;;18.40;98.70;;;;;;5032672;28;101656;-71
2022/05/19 04:17:16;;;;;;;70.88;59.38;;;18.50;98.70;;;;;;5033491;28;97790;-71
2022/05/19 04:19:43;;;;;;;71.10;60.95;;;18.50;98.60;;;;;;5033203;28;98564;-71
2022/05/19 04:22:10;;;;;;;70.35;60.33;;;18.50;98.50;;;;;;5034135;28;99404;-71
2022/05/19 04:24:37;;;;;;;73.13;61.05;;;18.60;98.50;;;;;;5015430;28;101669;-72
2022/05/19 04:27:04;;;;;;;68.72;58.30;;;18.60;98.40;;;;;;5015324;28;98648;-71
2022/05/19 04:29:31;;;;;;;70.38;57.22;;;18.60;98.40;;;;;;5016105;28;98552;-71
2022/05/19 04:31:58;;;;;;;66.75;57.63;;;18.70;98.40;;;;;;5015575;28;102329;-71
2022/05/19 04:34:25;;;;;;;76.22;61.60;;;18.70;98.30;;;;;;5034219;28;99213;-71
2022/05/19 04:36:52;;;;;;;67.95;58.35;;;18.70;98.30;;;;;;5015843;28;98600;-71
2022/05/19 04:39:19;;;;;;;68.75;58.05;;;18.70;98.30;;;;;;5034436;28;98502;-71
2022/05/19 04:41:46;;;;;;;68.75;58.40;;;18.70;98.30;;;;;;5015730;28;101579;-71
2022/05/19 04:44:13;;;;;;;69.05;58.40;;;18.80;98.30;;;;;;5033673;28;98471;-71
2022/05/19 04:46:40;;;;;;;66.78;58.85;;;18.90;98.20;;;;;;5033121;28;98659;-71
2022/05/19 04:49:07;;;;;;;67.05;58.20;;;19.00;98.10;;;;;;5015645;28;99338;-71
2022/05/19 04:51:34;;;;;;;69.47;56.22;;;19.00;98.20;;;;;;4999263;28;99344;-71
2022/05/19 04:54:01;;;;;;;67.40;58.20;;;19.10;97.90;;;;;;5015622;28;99147;-71
2022/05/19 04:56:30;;;;;;;66.28;56.00;;;19.20;97.90;;;;;;5014587;28;98655;-71
2022/05/19 04:58:57;;;;;;;66.43;55.45;;;19.30;97.80;;;;;;5016233;28;99103;-71
2022/05/19 05:01:24;;;;;;;64.40;54.85;;;19.40;97.70;;;;;;5015579;28;99336;-71
2022/05/19 05:03:51;;;;;;;57.15;50.90;;;19.50;97.40;;;;;;5031828;28;101624;-71
2022/05/19 05:06:18;;;;;;;53.58;46.45;;;19.70;97.20;;;;;;5015454;28;97925;-72
2022/05/19 05:08:45;;;;;;;53.17;46.38;;;19.80;96.90;;;;;;5033973;28;98676;-71
2022/05/19 05:11:12;;;;;;;56.05;50.05;;;19.90;96.60;;;;;;5014867;28;102155;-71
2022/05/19 05:13:39;;;;;;;52.33;46.50;;;20.10;96.40;;;;;;5033103;28;99248;-71
2022/05/19 05:16:06;;;;;;;51.65;44.97;;;20.10;96.20;;;;;;5031616;28;98626;-71
2022/05/19 05:18:33;;;;;;;51.17;45.30;;;20.20;96.40;;;;;;5033692;28;98825;-71
2022/05/19 05:21:04;;;;;;;46.67;41.63;;;20.30;96.00;;;;;;5015168;28;99288;-72
2022/05/19 05:23:31;;;;;;;44.45;39.88;;;20.40;95.90;;;;;;5033182;28;99153;-72
2022/05/19 05:25:58;;;;;;;42.90;38.40;;;20.50;95.70;;;;;;4998816;28;98613;-72
2022/05/19 05:28:25;;;;;;;46.65;41.42;;;20.50;95.60;;;;;;5033501;28;98423;-72
2022/05/19 05:30:52;;;;;;;41.47;37.17;;;20.60;95.60;;;;;;5015766;28;98664;-72
2022/05/19 05:33:19;;;;;;;40.42;36.28;;;20.70;95.40;;;;;;5031669;28;98580;-72
2022/05/19 05:35:46;;;;;;;39.30;35.13;;;20.80;95.20;;;;;;5031678;28;98541;-72
2022/05/19 05:38:13;;;;;;;42.72;37.88;;;20.90;95.20;;;;;;5014281;28;99285;-72
2022/05/19 05:40:39;;;;;;;38.60;34.70;;;21.10;95.00;;;;;;5032934;28;99246;-71
2022/05/19 05:43:08;;;;;;;38.85;34.90;;;21.30;94.70;;;;;;5014710;28;99046;-71
2022/05/19 05:45:36;;;;;;;37.50;33.67;;;21.50;94.40;;;;;;5014489;28;98865;-72
2022/05/19 05:48:04;;;;;;;39.70;34.00;;;21.70;94.10;;;;;;5033194;28;98503;-72
2022/05/19 05:50:31;;;;;;;37.65;33.90;;;21.80;93.80;;;;;;4997967;28;101834;-72
2022/05/19 05:52:58;;;;;;;37.05;33.20;;;22.00;93.60;;;;;;5013723;28;117057;-72
2022/05/19 05:55:27;;;;;;;35.45;31.75;;;22.10;93.40;;;;;;5031686;28;97807;-72
2022/05/19 05:57:54;;;;;;;34.47;31.13;;;22.20;93.10;;;;;;5014660;28;98614;-72
2022/05/19 06:00:22;;;;;;;34.58;30.98;;;22.30;93.00;;;;;;5032463;28;99433;-72
2022/05/19 06:02:49;;;;;;;34.83;31.58;;;22.50;92.80;;;;;;5031807;28;99243;-72
2022/05/19 06:05:18;;;;;;;35.65;32.08;;;22.50;92.50;;;;;;5032335;28;98992;-71
2022/05/19 06:07:45;;;;;;;34.92;31.55;;;22.60;92.50;;;;;;5014247;28;98817;-72
2022/05/19 06:10:13;;;;;;;36.20;32.30;;;22.80;92.40;;;;;;5014148;28;99368;-72
2022/05/19 06:12:41;;;;;;;34.03;30.65;;;22.90;92.20;;;;;;5030701;28;101489;-72
2022/05/19 06:15:11;;;;;;;36.20;32.40;;;23.00;92.00;;;;;;5013904;28;98674;-72
2022/05/19 06:17:41;;;;;;;34.92;31.20;;;23.10;92.00;;;;;;5014178;28;98613;-72
2022/05/19 06:20:11;;;;;;;32.30;29.20;;;23.00;92.00;;;;;;5030567;28;103814;-72
2022/05/19 06:22:38;;;;;;;33.20;30.23;;;23.00;91.90;;;;;;5014201;28;101989;-72
2022/05/19 06:25:06;;;;;;;29.35;26.52;;;23.00;92.00;;;;;;5013846;28;98548;-72
2022/05/19 06:27:33;;;;;;;27.45;24.70;;;23.00;92.20;;;;;;5031395;28;99210;-72
2022/05/19 06:30:00;;;;;;;28.05;25.13;;;23.00;91.80;;;;;;5030703;28;101804;-72
2022/05/19 06:32:28;;;;;;;26.40;23.70;;;23.10;91.50;;;;;;5031950;28;99062;-72
2022/05/19 06:34:55;;;;;;;23.48;21.42;;;23.30;91.30;;;;;;4997320;28;98618;-71
2022/05/19 06:37:22;;;;;;;22.33;20.13;;;23.40;91.00;;;;;;5031797;28;103183;-72
2022/05/19 06:39:49;;;;;;;21.20;19.10;;;23.60;90.60;;;;;;5013777;28;101983;-72
2022/05/19 06:42:16;;;;;;;20.35;18.17;;;23.70;90.00;;;;;;5031794;28;99223;-72
2022/05/19 06:44:43;;;;;;;18.63;16.83;;;23.80;89.50;;;;;;5032532;28;97832;-72
2022/05/19 06:47:15;;;;;;;21.13;19.23;;;23.90;87.60;;;;;;5032304;28;98848;-72
2022/05/19 06:49:45;;;;;;;22.40;20.13;;;23.90;87.10;;;;;;5014194;28;99416;-72
2022/05/19 06:52:18;;;;;;;21.40;19.25;;;24.00;86.80;;;;;;5029731;28;101746;-72
2022/05/19 06:54:51;;;;;;;21.38;19.25;;;23.80;87.50;;;;;;5014200;28;98515;-72
2022/05/19 06:57:20;;;;;;;19.83;17.95;;;23.80;87.40;;;;;;5013975;28;99066;-72
2022/05/19 06:59:48;;;;;;;21.83;19.75;;;23.90;87.20;;;;;;5030184;28;102052;-72
2022/05/19 07:02:18;;;;;;;21.70;19.38;;;24.00;87.00;;;;;;5029934;28;101717;-72
2022/05/19 07:04:46;;;;;;;21.00;18.90;;;24.10;86.50;;;;;;5032421;28;99026;-72
2022/05/19 07:07:14;;;;;;;20.10;18.15;;;24.20;86.00;;;;;;5013620;28;98531;-72
2022/05/19 07:09:42;;;;;;;20.65;18.45;;;24.50;85.80;;;;;;5013651;28;101280;-72
2022/05/19 07:12:10;;;;;;;21.13;19.02;;;24.70;85.50;;;;;;5013359;28;99440;-72
2022/05/19 07:14:37;;;;;;;20.40;18.35;;;24.80;84.70;;;;;;5013452;28;98599;-72
2022/05/19 07:17:05;;;;;;;21.10;19.15;;;24.90;84.40;;;;;;5013375;28;99505;-72
2022/05/19 07:22:22;;;;;;;20.27;18.38;;;25.00;83.30;;;;;;5035338;28;99114;-72
2022/05/19 07:24:54;;;;;;;18.80;17.00;;;25.00;83.00;;;;;;5035443;28;99358;-72
2022/05/19 07:27:21;;;;;;;20.10;18.05;;;25.10;83.00;;;;;;5016741;28;98676;-72
2022/05/19 07:29:48;;;;;;;18.05;15.77;;;25.30;83.20;;;;;;5033405;28;104571;-72
2022/05/19 07:32:20;;;;;;;17.00;15.40;;;25.30;83.00;;;;;;5034963;28;99623;-72
2022/05/19 07:34:48;;;;;;;17.05;15.30;;;25.50;82.60;;;;;;5035536;28;97730;-72
2022/05/19 07:37:15;;;;;;;15.80;14.30;;;25.70;82.50;;;;;;5016912;28;98554;-72
2022/05/19 07:39:42;;;;;;;17.67;16.08;;;26.00;81.10;;;;;;5034755;28;99160;-72
2022/05/19 07:42:09;;;;;;;17.85;16.05;;;26.00;80.90;;;;;;4999949;28;99367;-72
2022/05/19 07:44:36;;;;;;;15.38;13.98;;;26.10;80.70;;;;;;5033561;28;98546;-72
2022/05/19 07:47:03;;;;;;;16.90;15.30;;;26.30;80.10;;;;;;5033550;28;104402;-72
2022/05/19 07:49:30;;;;;;;17.52;15.85;;;26.50;79.70;;;;;;4999499;28;101785;-72
2022/05/19 07:51:57;;;;;;;18.70;16.90;;;26.50;79.40;;;;;;4999965;28;101780;-72
2022/05/19 07:54:26;;;;;;;19.20;17.25;;;26.50;78.60;;;;;;5033106;28;98594;-72
2022/05/19 07:56:54;;;;;;;19.58;17.70;;;26.40;79.10;;;;;;5034979;28;98908;-72
2022/05/19 07:59:22;;;;;;;18.95;17.15;;;26.40;79.60;;;;;;5034700;28;98874;-72
2022/05/19 08:01:49;;;;;;;19.55;17.65;;;26.30;79.70;;;;;;5034752;28;99568;-72
2022/05/19 08:04:22;;;;;;;18.25;16.30;;;26.30;79.30;;;;;;5034838;28;98516;-72
2022/05/19 08:06:49;;;;;;;20.45;18.45;;;26.30;79.40;;;;;;5034697;28;99555;-72
2022/05/19 08:12:03;;;;;;;23.52;21.10;;;25.90;80.70;;;;;;5034598;28;99149;-72
2022/05/19 08:17:29;;;;;;;22.10;20.05;;;25.40;83.40;;;;;;5034439;28;98477;-72
2022/05/19 08:19:58;;;;;;;21.15;19.15;;;25.10;83.70;;;;;;5016544;28;99328;-72
2022/05/19 08:22:25;;;;;;;22.00;19.88;;;24.90;84.60;;;;;;4999615;28;101783;-72
2022/05/19 08:24:52;;;;;;;21.73;19.42;;;24.80;84.90;;;;;;5016266;28;97715;-72
2022/05/19 08:27:19;;;;;;;21.05;19.10;;;24.50;85.60;;;;;;5015858;28;98719;-72
2022/05/19 08:29:46;;;;;;;22.13;20.00;;;24.20;88.00;;;;;;4999202;28;101952;-72
2022/05/19 08:32:14;;;;;;;24.67;22.35;;;23.90;89.10;;;;;;5015523;28;99330;-72
2022/05/19 08:34:41;;;;;;;23.50;20.98;;;23.90;90.00;;;;;;5034010;28;98512;-72
2022/05/19 08:37:08;;;;;;;24.15;21.67;;;23.70;90.00;;;;;;5016055;28;98877;-72
2022/05/19 08:39:35;;;;;;;23.90;21.70;;;23.60;90.30;;;;;;5033659;28;99042;-72
2022/05/19 08:42:05;;;;;;;28.40;25.27;;;23.50;90.70;;;;;;5032312;28;101662;-72
2022/05/19 08:44:38;;;;;;;24.70;22.27;;;23.50;90.80;;;;;;5016102;28;98547;-71
2022/05/19 08:47:08;;;;;;;26.30;23.73;;;23.50;90.90;;;;;;5034346;28;98512;-71
2022/05/19 08:50:01;;;;;;;26.90;24.45;;;23.40;90.90;;;;;;5032416;28;98749;-71
2022/05/19 08:52:37;;;;;;;24.05;21.77;;;23.60;91.00;;;;;;5015665;28;98660;-71
2022/05/19 08:55:05;;;;;;;25.92;23.33;;;23.60;90.70;;;;;;5015782;28;98568;-71
2022/05/19 08:58:09;;;;;;;25.48;22.80;;;23.80;90.80;;;;;;5015160;28;99406;-71
2022/05/19 09:00:49;;;;;;;26.40;24.00;;;24.10;90.50;;;;;;5014940;28;105451;-71
2022/05/19 09:03:22;;;;;;;26.25;23.85;;;24.30;90.00;;;;;;5033787;28;99213;-71
2022/05/19 09:06:04;;;;;;;25.65;23.25;;;24.50;89.40;;;;;;5032067;28;98543;-71
2022/05/19 09:08:48;;;;;;;25.70;23.10;;;24.80;88.30;;;;;;5015361;28;98549;-71
2022/05/19 09:11:21;;;;;;;27.23;24.58;;;25.10;88.00;;;;;;5033263;28;101411;-71
2022/05/19 09:13:54;;;;;;;27.60;25.17;;;25.30;87.20;;;;;;5015537;28;99091;-71
2022/05/19 09:16:28;;;;;;;29.60;26.85;;;25.40;86.80;;;;;;5034355;28;98115;-71
2022/05/19 09:19:06;;;;;;;25.50;22.98;;;25.50;86.30;;;;;;5015234;28;98551;-71
2022/05/19 09:21:35;;;;;;;22.67;20.50;;;25.60;86.50;;;;;;5033203;28;99318;-71
2022/05/19 09:24:04;;;;;;;25.20;22.65;;;25.70;86.50;;;;;;4997420;28;101837;-71
2022/05/19 09:26:43;;;;;;;25.60;23.17;;;25.80;85.20;;;;;;5030983;28;98647;-71
2022/05/19 09:29:14;;;;;;;26.38;23.73;;;26.00;84.80;;;;;;5015306;28;98960;-71
2022/05/19 09:31:54;;;;;;;28.58;26.02;;;26.00;84.00;;;;;;5032886;28;99209;-71
2022/05/19 09:34:27;;;;;;;25.00;22.65;;;26.30;84.00;;;;;;5014664;28;102184;-71
2022/05/19 09:37:14;;;;;;;26.00;23.40;;;26.30;83.30;;;;;;5032955;28;98500;-71
2022/05/19 09:39:49;;;;;;;24.17;21.80;;;26.50;83.10;;;;;;5033150;28;98702;-71
2022/05/19 09:42:23;;;;;;;24.98;22.58;;;26.70;81.70;;;;;;5031335;27;101205;-71
2022/05/19 09:44:55;;;;;;;24.20;21.90;;;26.70;82.10;;;;;;5031166;28;98588;-71
2022/05/19 09:47:27;;;;;;;24.70;22.37;;;26.80;81.50;;;;;;5032030;28;98822;-71
2022/05/19 09:50:08;;;;;;;21.83;19.80;;;26.90;81.30;;;;;;5032187;28;99249;-71
2022/05/19 09:52:39;;;;;;;20.80;18.90;;;27.00;80.90;;;;;;5032386;28;99236;-71
2022/05/19 09:55:07;;;;;;;22.05;20.15;;;27.10;80.00;;;;;;5031420;28;99148;-71
2022/05/19 09:57:51;;;;;;;23.15;21.08;;;27.20;79.70;;;;;;5032592;28;98632;-71
2022/05/19 10:00:18;;;;;;;;;;;27.40;80.00;;;;;;5033695;28;98437;-71
2022/05/19 10:02:50;;;;;;;21.70;19.67;;;27.10;80.50;;;;;;5033896;28;99255;-71
2022/05/19 10:05:46;;;;;;;24.10;21.92;;;27.20;81.00;;;;;;5032323;28;99037;-71
2022/05/19 10:08:34;;;;;;;23.95;21.70;;;27.40;80.80;;;;;;5015186;28;97920;-71
2022/05/19 10:11:04;;;;;;;25.15;22.95;;;27.50;80.40;;;;;;5032911;28;98538;-71
2022/05/19 10:13:38;;;;;;;22.40;20.35;;;27.70;79.20;;;;;;5032235;28;99301;-71
2022/05/19 10:16:08;;;;;;;23.73;21.55;;;27.80;78.50;;;;;;5013815;28;101587;-71
2022/05/19 10:19:27;;;;;;;21.60;19.55;;;27.90;78.50;;;;;;5032677;28;98955;-71
2022/05/19 10:22:02;;;;;;;22.10;20.20;;;28.00;77.80;;;;;;4992269;28;98619;-71
2022/05/19 10:24:41;;;;;;;24.45;22.17;;;27.90;78.30;;;;;;5031169;28;99255;-71
2022/05/19 10:33:39;;;;;;;24.05;21.70;;;28.20;75.80;;;;;;5032362;28;98515;-71
2022/05/19 10:36:11;;;;;;;24.02;21.73;;;28.20;75.80;;;;;;5028405;28;98565;-71
2022/05/19 10:39:08;;;;;;;25.48;23.27;;;28.20;75.70;;;;;;5031733;28;98539;-71
2022/05/19 10:42:00;;;;;;;25.25;23.08;;;28.30;75.60;;;;;;4943479;28;98617;-71
2022/05/19 10:44:45;;;;;;;24.10;21.65;;;28.50;74.90;;;;;;5032129;28;99262;-71
2022/05/19 10:47:43;;;;;;;26.13;23.63;;;28.60;75.10;;;;;;5030322;28;101828;-71
2022/05/19 10:50:22;;;;;;;23.20;21.08;;;28.90;74.20;;;;;;5031998;28;99661;-71
2022/05/19 10:53:05;;;;;;;25.70;21.77;;;28.90;73.70;;;;;;5031938;28;98474;-71
2022/05/19 10:55:55;;;;;;;25.25;22.95;;;29.00;73.80;;;;;;5032346;28;98987;-71
2022/05/19 10:58:55;;;;;;;24.55;22.33;;;29.10;73.80;;;;;;5031928;28;99247;-71
2022/05/19 11:01:22;;;;;;;24.02;21.83;;;29.00;73.50;;;;;;5031350;28;99151;-71
2022/05/19 11:04:12;;;;;;;25.50;22.98;;;28.80;74.10;;;;;;5014296;28;98285;-71
2022/05/19 11:07:07;;;;;;;23.60;21.25;;;28.80;74.60;;;;;;5032129;28;98575;-71
2022/05/19 11:09:46;;;;;;;25.13;22.88;;;28.70;74.10;;;;;;5031769;28;99371;-71
2022/05/19 11:12:54;;;;;;;24.77;22.52;;;28.60;74.50;;;;;;5012464;28;101895;-71
2022/05/19 11:15:48;;;;;;;23.30;21.20;;;28.50;74.60;;;;;;5032183;28;98556;-71
2022/05/19 11:18:38;;;;;;;25.08;22.75;;;28.30;74.00;;;;;;5030038;28;98563;-71
2022/05/19 11:21:11;;;;;;;21.90;20.10;;;28.40;75.50;;;;;;5012814;28;102236;-71
2022/05/19 11:23:44;;;;;;;20.20;18.42;;;28.20;74.60;;;;;;5013515;28;99198;-71
2022/05/19 11:26:23;;;;;;;21.13;19.13;;;28.40;73.70;;;;;;4996703;28;98547;-71
2022/05/19 11:28:57;;;;;;;15.23;13.88;;;28.40;73.60;;;;;;5031957;28;98773;-71
2022/05/19 11:32:06;;;;;;;15.90;14.45;;;28.40;70.90;;;;;;5031483;28;98673;-71
2022/05/19 11:34:45;;;;;;;15.50;13.90;;;28.30;71.10;;;;;;5013144;28;101007;-71
2022/05/19 11:37:48;;;;;;;17.00;15.32;;;28.30;70.90;;;;;;5013761;28;98495;-71
2022/05/19 11:40:25;;;;;;;17.50;15.90;;;28.30;69.60;;;;;;5031117;28;99308;-71
2022/05/19 11:43:20;;;;;;;20.02;18.17;;;28.20;69.90;;;;;;5013108;28;99317;-71
2022/05/19 11:45:58;;;;;;;14.73;13.25;;;28.30;69.90;;;;;;5013055;28;101570;-71
2022/05/19 11:55:18;;;;;;;13.68;12.40;;;28.90;68.50;;;;;;5012427;28;101801;-72
2022/05/19 11:58:10;;;;;;;11.18;9.27;;;29.10;68.80;;;;;;5029601;28;99065;-71
2022/05/19 12:00:49;;;;;;;6.70;6.10;;;29.30;67.00;;;;;;5013852;28;97837;-71
2022/05/19 12:03:43;;;;;;;6.90;6.05;;;29.50;65.60;;;;;;5032437;28;98857;-72
2022/05/19 12:06:12;;;;;;;8.27;7.47;;;29.70;65.00;;;;;;5032668;28;99316;-73
2022/05/19 12:08:56;;;;;;;7.15;6.50;;;29.70;64.70;;;;;;5016614;28;99371;-73
2022/05/19 12:11:44;;;;;;;6.70;6.10;;;30.00;64.00;;;;;;5035377;28;98745;-73
2022/05/19 12:14:11;;;;;;;6.38;5.70;;;30.20;63.10;;;;;;5035196;28;99331;-73
2022/05/19 12:16:55;;;;;;;6.10;5.50;;;30.10;63.20;;;;;;5016529;28;101771;-73
2022/05/19 12:19:39;;;;;;;4.88;4.07;;;30.20;62.10;;;;;;5033157;28;100085;-73
2022/05/19 12:22:43;;;;;;;4.00;3.70;;;30.30;61.10;;;;;;5017119;28;98707;-74
2022/05/19 12:25:12;;;;;;;3.17;2.97;;;30.40;58.20;;;;;;5035041;28;98535;-73
2022/05/19 12:28:04;;;;;;;3.35;3.15;;;30.40;59.10;;;;;;4999527;28;101126;-73
2022/05/19 12:33:29;;;;;;;2.90;2.60;;;30.70;57.00;;;;;;5016868;28;98570;-73
2022/05/19 12:36:11;;;;;;;3.80;3.50;;;30.80;56.90;;;;;;5034640;28;99230;-74
2022/05/19 12:38:42;;;;;;;6.40;3.22;;;31.00;56.50;;;;;;5034605;28;99352;-73
2022/05/19 12:41:31;;;;;;;4.00;3.20;;;31.10;57.00;;;;;;5034476;28;98936;-74
2022/05/19 12:44:24;;;;;;;3.75;3.33;;;31.20;56.50;;;;;;5016849;28;98498;-73
2022/05/19 12:47:22;;;;;;;4.30;4.00;;;31.20;56.20;;;;;;5029409;28;99104;-73
2022/05/19 12:50:01;;;;;;;3.28;3.00;;;31.10;56.10;;;;;;5031348;28;101849;-73
2022/05/19 12:52:59;;;;;;;4.15;3.47;;;31.00;56.70;;;;;;5016017;28;101882;-74
2022/05/19 12:55:31;;;;;;;4.90;3.22;;;31.00;57.20;;;;;;4999991;28;97854;-73
2022/05/19 12:58:33;;;;;;;4.85;4.55;;;30.80;57.50;;;;;;5033393;28;98633;-73
2022/05/19 13:01:24;;;;;;;4.03;2.90;;;30.80;58.10;;;;;;5033701;28;99496;-74
2022/05/19 13:04:06;;;;;;;2.92;2.83;;;30.70;58.20;;;;;;5015715;28;99346;-73
2022/05/19 13:06:34;;;;;;;4.07;3.60;;;30.60;57.90;;;;;;5016053;28;98617;-73
2022/05/19 13:09:05;;;;;;;4.28;3.55;;;30.40;58.10;;;;;;5034331;28;98486;-73
2022/05/19 13:11:44;;;;;;;4.30;4.00;;;30.40;59.00;;;;;;5015693;28;103062;-73
2022/05/19 13:14:18;;;;;;;4.57;4.20;;;30.20;60.60;;;;;;5034026;28;99035;-71
2022/05/19 13:16:53;;;;;;;3.25;3.05;;;30.00;61.40;;;;;;4999273;27;98572;-71
2022/05/19 13:19:26;;;;;;;3.72;3.47;;;29.80;61.60;;;;;;5031754;28;98580;-72
2022/05/19 13:21:55;;;;;;;4.80;3.58;;;29.60;63.50;;;;;;5034535;28;98629;-72